sensor_id;sensor_type;location;lat;lon;timestamp;P1;durP1;ratioP1;P2;durP2;ratioP2
52268;SDS011;38224;50.950;4.100;2023-02-02T00:01:12;30.30;;;6.47;;
52268;SDS011;38224;50.950;4.100;2023-02-02T00:03:37;26.40;;;6.50;;
52268;SDS011;38224;50.950;4.100;2023-02-02T00:06:03;28.48;;;5.68;;
52268;SDS011;38224;50.950;4.100;2023-02-02T00:08:29;29.95;;;5.72;;
52268;SDS011;38224;50.950;4.100;2023-02-02T00:10:54;33.10;;;6.20;;
52268;SDS011;38224;50.950;4.100;2023-02-02T00:13:19;31.13;;;5.87;;
52268;SDS011;38224;50.950;4.100;2023-02-02T00:15:45;27.50;;;6.15;;
52268;SDS011;38224;50.950;4.100;2023-02-02T00:18:10;39.73;;;6.70;;
52268;SDS011;38224;50.950;4.100;2023-02-02T00:20:35;26.97;;;6.77;;
52268;SDS011;38224;50.950;4.100;2023-02-02T00:23:01;25.70;;;5.55;;
52268;SDS011;38224;50.950;4.100;2023-02-02T00:25:27;25.67;;;5.47;;
52268;SDS011;38224;50.950;4.100;2023-02-02T00:27:52;35.78;;;7.00;;
52268;SDS011;38224;50.950;4.100;2023-02-02T00:30:17;51.13;;;7.15;;
52268;SDS011;38224;50.950;4.100;2023-02-02T00:32:43;41.38;;;6.35;;
52268;SDS011;38224;50.950;4.100;2023-02-02T00:35:08;34.92;;;5.50;;
52268;SDS011;38224;50.950;4.100;2023-02-02T00:37:34;30.63;;;5.47;;
52268;SDS011;38224;50.950;4.100;2023-02-02T00:39:59;28.60;;;5.45;;
52268;SDS011;38224;50.950;4.100;2023-02-02T00:42:24;31.27;;;5.35;;
52268;SDS011;38224;50.950;4.100;2023-02-02T00:44:50;33.58;;;5.68;;
52268;SDS011;38224;50.950;4.100;2023-02-02T00:47:34;32.33;;;5.45;;
52268;SDS011;38224;50.950;4.100;2023-02-02T00:49:59;35.38;;;5.43;;
52268;SDS011;38224;50.950;4.100;2023-02-02T00:52:24;37.63;;;6.03;;
52268;SDS011;38224;50.950;4.100;2023-02-02T00:54:49;29.17;;;5.10;;
52268;SDS011;38224;50.950;4.100;2023-02-02T00:57:15;29.88;;;6.03;;
52268;SDS011;38224;50.950;4.100;2023-02-02T00:59:40;29.50;;;5.35;;
52268;SDS011;38224;50.950;4.100;2023-02-02T01:02:06;32.10;;;6.22;;
52268;SDS011;38224;50.950;4.100;2023-02-02T01:04:31;30.92;;;5.78;;
52268;SDS011;38224;50.950;4.100;2023-02-02T01:06:56;32.58;;;5.40;;
52268;SDS011;38224;50.950;4.100;2023-02-02T01:09:21;22.77;;;5.53;;
52268;SDS011;38224;50.950;4.100;2023-02-02T01:11:47;32.25;;;5.30;;
52268;SDS011;38224;50.950;4.100;2023-02-02T01:14:12;35.17;;;4.80;;
52268;SDS011;38224;50.950;4.100;2023-02-02T01:16:37;31.20;;;4.55;;
52268;SDS011;38224;50.950;4.100;2023-02-02T01:19:03;30.53;;;5.20;;
52268;SDS011;38224;50.950;4.100;2023-02-02T01:21:28;30.55;;;5.60;;
52268;SDS011;38224;50.950;4.100;2023-02-02T01:23:53;32.50;;;6.13;;
52268;SDS011;38224;50.950;4.100;2023-02-02T01:26:18;31.00;;;5.70;;
52268;SDS011;38224;50.950;4.100;2023-02-02T01:28:44;35.37;;;5.43;;
52268;SDS011;38224;50.950;4.100;2023-02-02T01:31:13;36.75;;;5.15;;
52268;SDS011;38224;50.950;4.100;2023-02-02T01:33:39;35.30;;;5.55;;
52268;SDS011;38224;50.950;4.100;2023-02-02T01:36:05;28.88;;;4.93;;
52268;SDS011;38224;50.950;4.100;2023-02-02T01:38:31;37.53;;;6.75;;
52268;SDS011;38224;50.950;4.100;2023-02-02T01:40:57;29.17;;;5.90;;
52268;SDS011;38224;50.950;4.100;2023-02-02T01:43:23;35.50;;;6.93;;
52268;SDS011;38224;50.950;4.100;2023-02-02T01:45:49;35.63;;;6.70;;
52268;SDS011;38224;50.950;4.100;2023-02-02T01:48:15;40.83;;;6.80;;
52268;SDS011;38224;50.950;4.100;2023-02-02T01:50:41;36.78;;;6.07;;
52268;SDS011;38224;50.950;4.100;2023-02-02T01:53:07;31.23;;;4.75;;
52268;SDS011;38224;50.950;4.100;2023-02-02T01:55:33;26.13;;;5.03;;
52268;SDS011;38224;50.950;4.100;2023-02-02T01:58:01;26.20;;;5.25;;
52268;SDS011;38224;50.950;4.100;2023-02-02T02:00:28;43.30;;;6.30;;
52268;SDS011;38224;50.950;4.100;2023-02-02T02:02:55;29.25;;;4.95;;
52268;SDS011;38224;50.950;4.100;2023-02-02T02:05:23;30.67;;;5.45;;
52268;SDS011;38224;50.950;4.100;2023-02-02T02:07:50;30.60;;;5.13;;
52268;SDS011;38224;50.950;4.100;2023-02-02T02:10:16;30.35;;;6.18;;
52268;SDS011;38224;50.950;4.100;2023-02-02T02:12:42;36.17;;;5.72;;
52268;SDS011;38224;50.950;4.100;2023-02-02T02:15:07;25.10;;;5.78;;
52268;SDS011;38224;50.950;4.100;2023-02-02T02:20:48;24.15;;;5.18;;
52268;SDS011;38224;50.950;4.100;2023-02-02T02:26:32;36.20;;;5.38;;
52268;SDS011;38224;50.950;4.100;2023-02-02T02:36:52;26.60;;;5.20;;
52268;SDS011;38224;50.950;4.100;2023-02-02T02:39:22;26.33;;;5.47;;
52268;SDS011;38224;50.950;4.100;2023-02-02T02:41:50;25.67;;;5.88;;
52268;SDS011;38224;50.950;4.100;2023-02-02T02:44:17;28.48;;;5.68;;
52268;SDS011;38224;50.950;4.100;2023-02-02T02:46:43;27.75;;;5.45;;
52268;SDS011;38224;50.950;4.100;2023-02-02T02:49:09;22.73;;;5.53;;
52268;SDS011;38224;50.950;4.100;2023-02-02T02:54:04;35.90;;;5.20;;
52268;SDS011;38224;50.950;4.100;2023-02-02T02:56:34;26.98;;;4.78;;
52268;SDS011;38224;50.950;4.100;2023-02-02T03:01:33;25.73;;;5.30;;
52268;SDS011;38224;50.950;4.100;2023-02-02T03:06:54;25.73;;;5.85;;
52268;SDS011;38224;50.950;4.100;2023-02-02T03:09:22;30.15;;;5.32;;
52268;SDS011;38224;50.950;4.100;2023-02-02T03:11:49;25.65;;;4.75;;
52268;SDS011;38224;50.950;4.100;2023-02-02T03:14:14;29.88;;;4.72;;
52268;SDS011;38224;50.950;4.100;2023-02-02T03:16:39;24.00;;;5.20;;
52268;SDS011;38224;50.950;4.100;2023-02-02T03:19:05;24.40;;;4.83;;
52268;SDS011;38224;50.950;4.100;2023-02-02T03:21:31;26.92;;;5.22;;
52268;SDS011;38224;50.950;4.100;2023-02-02T03:23:57;26.55;;;4.85;;
52268;SDS011;38224;50.950;4.100;2023-02-02T03:26:22;30.17;;;4.63;;
52268;SDS011;38224;50.950;4.100;2023-02-02T03:28:48;24.35;;;5.03;;
52268;SDS011;38224;50.950;4.100;2023-02-02T03:31:14;26.58;;;5.93;;
52268;SDS011;38224;50.950;4.100;2023-02-02T03:33:39;33.58;;;5.80;;
52268;SDS011;38224;50.950;4.100;2023-02-02T03:36:05;22.73;;;4.80;;
52268;SDS011;38224;50.950;4.100;2023-02-02T03:38:30;24.17;;;4.80;;
52268;SDS011;38224;50.950;4.100;2023-02-02T03:40:55;23.75;;;4.82;;
52268;SDS011;38224;50.950;4.100;2023-02-02T03:43:21;23.27;;;4.65;;
52268;SDS011;38224;50.950;4.100;2023-02-02T03:45:47;22.00;;;4.95;;
52268;SDS011;38224;50.950;4.100;2023-02-02T03:48:12;27.30;;;4.68;;
52268;SDS011;38224;50.950;4.100;2023-02-02T03:50:37;26.50;;;4.25;;
52268;SDS011;38224;50.950;4.100;2023-02-02T03:53:03;33.90;;;5.60;;
52268;SDS011;38224;50.950;4.100;2023-02-02T03:55:29;30.33;;;4.72;;
52268;SDS011;38224;50.950;4.100;2023-02-02T03:57:54;29.42;;;4.97;;
52268;SDS011;38224;50.950;4.100;2023-02-02T04:00:20;25.85;;;5.65;;
52268;SDS011;38224;50.950;4.100;2023-02-02T04:02:45;26.85;;;4.30;;
52268;SDS011;38224;50.950;4.100;2023-02-02T04:05:10;23.53;;;4.40;;
52268;SDS011;38224;50.950;4.100;2023-02-02T04:07:35;23.85;;;4.50;;
52268;SDS011;38224;50.950;4.100;2023-02-02T04:10:01;29.83;;;5.40;;
52268;SDS011;38224;50.950;4.100;2023-02-02T04:12:26;26.10;;;4.93;;
52268;SDS011;38224;50.950;4.100;2023-02-02T04:14:51;28.33;;;6.00;;
52268;SDS011;38224;50.950;4.100;2023-02-02T04:17:17;31.17;;;5.05;;
52268;SDS011;38224;50.950;4.100;2023-02-02T04:19:42;23.97;;;4.73;;
52268;SDS011;38224;50.950;4.100;2023-02-02T04:22:07;24.35;;;4.55;;
52268;SDS011;38224;50.950;4.100;2023-02-02T04:24:32;28.40;;;4.57;;
52268;SDS011;38224;50.950;4.100;2023-02-02T04:26:58;32.07;;;4.80;;
52268;SDS011;38224;50.950;4.100;2023-02-02T04:29:23;25.30;;;5.27;;
52268;SDS011;38224;50.950;4.100;2023-02-02T04:31:50;26.73;;;5.22;;
52268;SDS011;38224;50.950;4.100;2023-02-02T04:34:15;25.93;;;4.90;;
52268;SDS011;38224;50.950;4.100;2023-02-02T04:36:40;25.90;;;4.83;;
52268;SDS011;38224;50.950;4.100;2023-02-02T04:39:06;23.42;;;4.47;;
52268;SDS011;38224;50.950;4.100;2023-02-02T04:41:31;21.58;;;4.18;;
52268;SDS011;38224;50.950;4.100;2023-02-02T04:43:56;24.25;;;3.97;;
52268;SDS011;38224;50.950;4.100;2023-02-02T04:46:21;25.27;;;4.30;;
52268;SDS011;38224;50.950;4.100;2023-02-02T04:48:47;27.33;;;4.30;;
52268;SDS011;38224;50.950;4.100;2023-02-02T04:51:13;33.53;;;5.85;;
52268;SDS011;38224;50.950;4.100;2023-02-02T04:53:39;24.75;;;4.88;;
52268;SDS011;38224;50.950;4.100;2023-02-02T04:56:10;20.23;;;4.00;;
52268;SDS011;38224;50.950;4.100;2023-02-02T04:58:35;28.67;;;5.65;;
52268;SDS011;38224;50.950;4.100;2023-02-02T05:01:06;34.33;;;4.60;;
52268;SDS011;38224;50.950;4.100;2023-02-02T05:03:31;25.25;;;5.65;;
52268;SDS011;38224;50.950;4.100;2023-02-02T05:06:03;30.02;;;4.45;;
52268;SDS011;38224;50.950;4.100;2023-02-02T05:08:28;19.52;;;4.15;;
52268;SDS011;38224;50.950;4.100;2023-02-02T05:10:54;21.55;;;3.58;;
52268;SDS011;38224;50.950;4.100;2023-02-02T05:13:19;28.45;;;5.35;;
52268;SDS011;38224;50.950;4.100;2023-02-02T05:15:44;25.43;;;4.73;;
52268;SDS011;38224;50.950;4.100;2023-02-02T05:18:10;25.23;;;4.55;;
52268;SDS011;38224;50.950;4.100;2023-02-02T05:20:35;25.37;;;4.47;;
52268;SDS011;38224;50.950;4.100;2023-02-02T05:23:00;29.50;;;4.85;;
52268;SDS011;38224;50.950;4.100;2023-02-02T05:25:25;25.97;;;5.03;;
52268;SDS011;38224;50.950;4.100;2023-02-02T05:27:51;22.70;;;4.55;;
52268;SDS011;38224;50.950;4.100;2023-02-02T05:30:16;23.83;;;5.13;;
52268;SDS011;38224;50.950;4.100;2023-02-02T05:32:41;16.20;;;3.70;;
52268;SDS011;38224;50.950;4.100;2023-02-02T05:35:07;26.92;;;4.55;;
52268;SDS011;38224;50.950;4.100;2023-02-02T05:37:32;26.40;;;5.35;;
52268;SDS011;38224;50.950;4.100;2023-02-02T05:39:58;28.97;;;5.00;;
52268;SDS011;38224;50.950;4.100;2023-02-02T05:42:23;24.20;;;4.35;;
52268;SDS011;38224;50.950;4.100;2023-02-02T05:44:48;34.63;;;5.03;;
52268;SDS011;38224;50.950;4.100;2023-02-02T05:47:13;20.88;;;5.22;;
52268;SDS011;38224;50.950;4.100;2023-02-02T05:49:39;27.02;;;4.63;;
52268;SDS011;38224;50.950;4.100;2023-02-02T05:52:04;25.90;;;4.63;;
52268;SDS011;38224;50.950;4.100;2023-02-02T05:54:29;25.35;;;4.60;;
52268;SDS011;38224;50.950;4.100;2023-02-02T05:56:55;26.38;;;4.55;;
52268;SDS011;38224;50.950;4.100;2023-02-02T05:59:21;27.83;;;4.40;;
52268;SDS011;38224;50.950;4.100;2023-02-02T06:01:46;19.42;;;3.60;;
52268;SDS011;38224;50.950;4.100;2023-02-02T06:04:12;24.38;;;4.72;;
52268;SDS011;38224;50.950;4.100;2023-02-02T06:06:37;27.30;;;4.93;;
52268;SDS011;38224;50.950;4.100;2023-02-02T06:09:04;32.00;;;5.75;;
52268;SDS011;38224;50.950;4.100;2023-02-02T06:11:29;28.25;;;4.40;;
52268;SDS011;38224;50.950;4.100;2023-02-02T06:13:55;26.50;;;5.47;;
52268;SDS011;38224;50.950;4.100;2023-02-02T06:16:20;24.40;;;5.00;;
52268;SDS011;38224;50.950;4.100;2023-02-02T06:18:45;32.20;;;5.40;;
52268;SDS011;38224;50.950;4.100;2023-02-02T06:21:11;30.17;;;5.13;;
52268;SDS011;38224;50.950;4.100;2023-02-02T06:23:36;29.08;;;4.20;;
52268;SDS011;38224;50.950;4.100;2023-02-02T06:26:01;27.05;;;4.50;;
52268;SDS011;38224;50.950;4.100;2023-02-02T06:28:29;33.03;;;4.97;;
52268;SDS011;38224;50.950;4.100;2023-02-02T06:30:54;23.83;;;5.00;;
52268;SDS011;38224;50.950;4.100;2023-02-02T06:33:20;26.93;;;4.40;;
52268;SDS011;38224;50.950;4.100;2023-02-02T06:35:45;22.53;;;4.17;;
52268;SDS011;38224;50.950;4.100;2023-02-02T06:38:10;23.88;;;4.60;;
52268;SDS011;38224;50.950;4.100;2023-02-02T06:40:35;27.98;;;5.57;;
52268;SDS011;38224;50.950;4.100;2023-02-02T06:43:01;23.50;;;4.40;;
52268;SDS011;38224;50.950;4.100;2023-02-02T06:45:27;30.02;;;4.60;;
52268;SDS011;38224;50.950;4.100;2023-02-02T06:47:53;25.02;;;4.05;;
52268;SDS011;38224;50.950;4.100;2023-02-02T06:50:18;17.00;;;3.90;;
52268;SDS011;38224;50.950;4.100;2023-02-02T06:52:47;27.88;;;4.93;;
52268;SDS011;38224;50.950;4.100;2023-02-02T06:55:13;25.90;;;4.03;;
52268;SDS011;38224;50.950;4.100;2023-02-02T06:57:38;22.15;;;4.50;;
52268;SDS011;38224;50.950;4.100;2023-02-02T07:00:03;26.77;;;6.15;;
52268;SDS011;38224;50.950;4.100;2023-02-02T07:02:29;21.90;;;4.18;;
52268;SDS011;38224;50.950;4.100;2023-02-02T07:04:54;20.87;;;4.07;;
52268;SDS011;38224;50.950;4.100;2023-02-02T07:07:19;25.38;;;4.82;;
52268;SDS011;38224;50.950;4.100;2023-02-02T07:09:45;22.20;;;5.30;;
52268;SDS011;38224;50.950;4.100;2023-02-02T07:12:10;22.57;;;5.77;;
52268;SDS011;38224;50.950;4.100;2023-02-02T07:14:35;29.92;;;4.63;;
52268;SDS011;38224;50.950;4.100;2023-02-02T07:17:00;25.02;;;5.15;;
52268;SDS011;38224;50.950;4.100;2023-02-02T07:19:26;21.83;;;4.85;;
52268;SDS011;38224;50.950;4.100;2023-02-02T07:21:51;21.40;;;5.47;;
52268;SDS011;38224;50.950;4.100;2023-02-02T07:24:16;27.00;;;5.18;;
52268;SDS011;38224;50.950;4.100;2023-02-02T07:26:42;25.58;;;4.38;;
52268;SDS011;38224;50.950;4.100;2023-02-02T07:29:13;35.00;;;4.47;;
52268;SDS011;38224;50.950;4.100;2023-02-02T07:31:39;18.73;;;4.53;;
52268;SDS011;38224;50.950;4.100;2023-02-02T07:34:04;18.33;;;4.20;;
52268;SDS011;38224;50.950;4.100;2023-02-02T07:36:29;24.23;;;5.13;;
52268;SDS011;38224;50.950;4.100;2023-02-02T07:38:54;24.40;;;4.23;;
52268;SDS011;38224;50.950;4.100;2023-02-02T07:41:21;18.13;;;4.47;;
52268;SDS011;38224;50.950;4.100;2023-02-02T07:43:47;18.55;;;4.68;;
52268;SDS011;38224;50.950;4.100;2023-02-02T07:46:13;28.00;;;4.57;;
52268;SDS011;38224;50.950;4.100;2023-02-02T07:48:38;17.48;;;3.50;;
52268;SDS011;38224;50.950;4.100;2023-02-02T07:51:05;16.40;;;3.47;;
52268;SDS011;38224;50.950;4.100;2023-02-02T07:53:31;19.73;;;4.13;;
52268;SDS011;38224;50.950;4.100;2023-02-02T07:56:15;18.48;;;3.33;;
52268;SDS011;38224;50.950;4.100;2023-02-02T07:58:41;18.92;;;3.80;;
52268;SDS011;38224;50.950;4.100;2023-02-02T08:01:09;20.50;;;3.33;;
52268;SDS011;38224;50.950;4.100;2023-02-02T08:03:35;26.80;;;4.18;;
52268;SDS011;38224;50.950;4.100;2023-02-02T08:06:01;27.48;;;4.38;;
52268;SDS011;38224;50.950;4.100;2023-02-02T08:08:32;17.73;;;3.35;;
52268;SDS011;38224;50.950;4.100;2023-02-02T08:10:57;20.25;;;4.10;;
52268;SDS011;38224;50.950;4.100;2023-02-02T08:13:23;20.33;;;3.67;;
52268;SDS011;38224;50.950;4.100;2023-02-02T08:15:48;23.42;;;3.65;;
52268;SDS011;38224;50.950;4.100;2023-02-02T08:18:13;20.90;;;3.63;;
52268;SDS011;38224;50.950;4.100;2023-02-02T08:20:39;19.20;;;3.97;;
52268;SDS011;38224;50.950;4.100;2023-02-02T08:23:04;16.55;;;3.17;;
52268;SDS011;38224;50.950;4.100;2023-02-02T08:25:33;18.75;;;3.38;;
52268;SDS011;38224;50.950;4.100;2023-02-02T08:27:59;17.02;;;3.35;;
52268;SDS011;38224;50.950;4.100;2023-02-02T08:30:25;22.10;;;3.65;;
52268;SDS011;38224;50.950;4.100;2023-02-02T08:32:50;12.50;;;3.75;;
52268;SDS011;38224;50.950;4.100;2023-02-02T08:35:16;26.08;;;3.92;;
52268;SDS011;38224;50.950;4.100;2023-02-02T08:37:43;18.70;;;3.70;;
52268;SDS011;38224;50.950;4.100;2023-02-02T08:40:08;20.27;;;4.22;;
52268;SDS011;38224;50.950;4.100;2023-02-02T08:42:34;16.92;;;3.83;;
52268;SDS011;38224;50.950;4.100;2023-02-02T08:44:59;19.17;;;3.73;;
52268;SDS011;38224;50.950;4.100;2023-02-02T08:47:27;15.23;;;3.65;;
52268;SDS011;38224;50.950;4.100;2023-02-02T08:49:52;17.63;;;3.45;;
52268;SDS011;38224;50.950;4.100;2023-02-02T08:52:18;23.73;;;4.60;;
52268;SDS011;38224;50.950;4.100;2023-02-02T08:54:44;23.77;;;4.00;;
52268;SDS011;38224;50.950;4.100;2023-02-02T08:57:13;15.52;;;3.50;;
52268;SDS011;38224;50.950;4.100;2023-02-02T08:59:38;21.20;;;3.90;;
52268;SDS011;38224;50.950;4.100;2023-02-02T09:02:03;15.20;;;3.33;;
52268;SDS011;38224;50.950;4.100;2023-02-02T09:04:29;16.60;;;3.63;;
52268;SDS011;38224;50.950;4.100;2023-02-02T09:06:54;23.98;;;3.95;;
52268;SDS011;38224;50.950;4.100;2023-02-02T09:09:19;21.48;;;3.35;;
52268;SDS011;38224;50.950;4.100;2023-02-02T09:11:45;21.53;;;3.90;;
52268;SDS011;38224;50.950;4.100;2023-02-02T09:14:11;10.23;;;3.20;;
52268;SDS011;38224;50.950;4.100;2023-02-02T09:16:37;18.38;;;3.88;;
52268;SDS011;38224;50.950;4.100;2023-02-02T09:19:02;20.33;;;3.35;;
52268;SDS011;38224;50.950;4.100;2023-02-02T09:21:28;16.52;;;3.00;;
52268;SDS011;38224;50.950;4.100;2023-02-02T09:23:53;19.48;;;3.58;;
52268;SDS011;38224;50.950;4.100;2023-02-02T09:26:20;29.70;;;5.82;;
52268;SDS011;38224;50.950;4.100;2023-02-02T09:28:47;17.25;;;3.53;;
52268;SDS011;38224;50.950;4.100;2023-02-02T09:31:13;18.27;;;3.42;;
52268;SDS011;38224;50.950;4.100;2023-02-02T09:33:39;20.92;;;3.83;;
52268;SDS011;38224;50.950;4.100;2023-02-02T09:36:05;20.08;;;3.78;;
52268;SDS011;38224;50.950;4.100;2023-02-02T09:38:31;17.90;;;4.05;;
52268;SDS011;38224;50.950;4.100;2023-02-02T09:40:56;22.15;;;4.13;;
52268;SDS011;38224;50.950;4.100;2023-02-02T09:45:59;30.13;;;4.10;;
52268;SDS011;38224;50.950;4.100;2023-02-02T09:48:42;16.45;;;4.05;;
52268;SDS011;38224;50.950;4.100;2023-02-02T09:51:22;18.63;;;3.45;;
52268;SDS011;38224;50.950;4.100;2023-02-02T09:53:51;19.38;;;4.20;;
52268;SDS011;38224;50.950;4.100;2023-02-02T09:57:01;11.80;;;4.10;;
52268;SDS011;38224;50.950;4.100;2023-02-02T09:59:11;10.40;;;2.65;;
52268;SDS011;38224;50.950;4.100;2023-02-02T10:01:39;14.70;;;3.58;;
52268;SDS011;38224;50.950;4.100;2023-02-02T10:06:37;20.40;;;3.92;;
52268;SDS011;38224;50.950;4.100;2023-02-02T10:14:37;17.63;;;3.30;;
52268;SDS011;38224;50.950;4.100;2023-02-02T10:17:07;14.35;;;3.10;;
52268;SDS011;38224;50.950;4.100;2023-02-02T10:19:40;22.38;;;3.35;;
52268;SDS011;38224;50.950;4.100;2023-02-02T10:22:11;17.02;;;3.47;;
52268;SDS011;38224;50.950;4.100;2023-02-02T10:24:37;17.67;;;4.30;;
52268;SDS011;38224;50.950;4.100;2023-02-02T10:27:03;15.30;;;3.40;;
52268;SDS011;38224;50.950;4.100;2023-02-02T10:29:32;15.32;;;3.17;;
52268;SDS011;38224;50.950;4.100;2023-02-02T10:32:13;23.33;;;3.88;;
52268;SDS011;38224;50.950;4.100;2023-02-02T10:37:13;45.13;;;6.23;;
52268;SDS011;38224;50.950;4.100;2023-02-02T10:42:19;17.08;;;4.03;;
52268;SDS011;38224;50.950;4.100;2023-02-02T10:47:13;16.15;;;3.50;;
52268;SDS011;38224;50.950;4.100;2023-02-02T10:49:40;16.45;;;3.63;;
52268;SDS011;38224;50.950;4.100;2023-02-02T10:54:55;13.05;;;3.47;;
52268;SDS011;38224;50.950;4.100;2023-02-02T10:57:25;19.70;;;3.15;;
52268;SDS011;38224;50.950;4.100;2023-02-02T11:00:01;17.45;;;2.80;;
52268;SDS011;38224;50.950;4.100;2023-02-02T11:02:29;17.98;;;4.05;;
52268;SDS011;38224;50.950;4.100;2023-02-02T11:04:55;17.37;;;3.53;;
52268;SDS011;38224;50.950;4.100;2023-02-02T11:07:38;13.25;;;3.28;;
52268;SDS011;38224;50.950;4.100;2023-02-02T11:10:04;17.63;;;3.90;;
52268;SDS011;38224;50.950;4.100;2023-02-02T11:12:30;19.40;;;3.20;;
52268;SDS011;38224;50.950;4.100;2023-02-02T11:15:00;14.60;;;3.30;;
52268;SDS011;38224;50.950;4.100;2023-02-02T11:17:26;14.98;;;2.67;;
52268;SDS011;38224;50.950;4.100;2023-02-02T11:19:52;18.50;;;3.13;;
52268;SDS011;38224;50.950;4.100;2023-02-02T11:22:23;13.13;;;3.33;;
52268;SDS011;38224;50.950;4.100;2023-02-02T11:24:49;9.85;;;2.97;;
52268;SDS011;38224;50.950;4.100;2023-02-02T11:27:16;14.90;;;3.35;;
52268;SDS011;38224;50.950;4.100;2023-02-02T11:29:45;15.73;;;3.03;;
52268;SDS011;38224;50.950;4.100;2023-02-02T11:38:04;13.73;;;2.60;;
52268;SDS011;38224;50.950;4.100;2023-02-02T11:40:36;15.05;;;2.72;;
52268;SDS011;38224;50.950;4.100;2023-02-02T11:43:12;15.90;;;3.00;;
52268;SDS011;38224;50.950;4.100;2023-02-02T11:45:39;11.45;;;3.10;;
52268;SDS011;38224;50.950;4.100;2023-02-02T11:48:21;18.10;;;3.03;;
52268;SDS011;38224;50.950;4.100;2023-02-02T11:50:52;22.58;;;3.65;;
52268;SDS011;38224;50.950;4.100;2023-02-02T11:53:21;16.20;;;3.72;;
52268;SDS011;38224;50.950;4.100;2023-02-02T11:55:47;11.23;;;3.03;;
52268;SDS011;38224;50.950;4.100;2023-02-02T12:00:49;18.38;;;3.28;;
52268;SDS011;38224;50.950;4.100;2023-02-02T12:03:28;12.23;;;3.10;;
52268;SDS011;38224;50.950;4.100;2023-02-02T12:05:53;13.02;;;3.13;;
52268;SDS011;38224;50.950;4.100;2023-02-02T12:08:19;13.85;;;3.50;;
52268;SDS011;38224;50.950;4.100;2023-02-02T12:13:22;13.80;;;3.13;;
52268;SDS011;38224;50.950;4.100;2023-02-02T12:21:34;11.53;;;2.97;;
52268;SDS011;38224;50.950;4.100;2023-02-02T12:24:07;14.90;;;3.35;;
52268;SDS011;38224;50.950;4.100;2023-02-02T12:26:35;19.20;;;3.75;;
52268;SDS011;38224;50.950;4.100;2023-02-02T12:31:34;13.43;;;3.80;;
52268;SDS011;38224;50.950;4.100;2023-02-02T12:34:14;14.82;;;3.15;;
52268;SDS011;38224;50.950;4.100;2023-02-02T12:44:45;10.43;;;3.13;;
52268;SDS011;38224;50.950;4.100;2023-02-02T12:50:05;15.80;;;2.97;;
52268;SDS011;38224;50.950;4.100;2023-02-02T12:55:35;9.95;;;2.55;;
52268;SDS011;38224;50.950;4.100;2023-02-02T13:00:51;13.30;;;3.03;;
52268;SDS011;38224;50.950;4.100;2023-02-02T13:08:35;10.57;;;3.47;;
52268;SDS011;38224;50.950;4.100;2023-02-02T13:11:07;12.83;;;2.83;;
52268;SDS011;38224;50.950;4.100;2023-02-02T13:13:53;18.83;;;3.25;;
52268;SDS011;38224;50.950;4.100;2023-02-02T13:16:20;10.13;;;3.10;;
52268;SDS011;38224;50.950;4.100;2023-02-02T13:18:47;11.30;;;3.20;;
52268;SDS011;38224;50.950;4.100;2023-02-02T13:21:17;9.00;;;3.00;;
52268;SDS011;38224;50.950;4.100;2023-02-02T13:23:44;10.52;;;3.17;;
52268;SDS011;38224;50.950;4.100;2023-02-02T13:26:17;20.15;;;3.58;;
52268;SDS011;38224;50.950;4.100;2023-02-02T13:28:50;11.38;;;2.92;;
52268;SDS011;38224;50.950;4.100;2023-02-02T13:31:18;12.00;;;2.80;;
52268;SDS011;38224;50.950;4.100;2023-02-02T13:33:44;12.63;;;2.90;;
52268;SDS011;38224;50.950;4.100;2023-02-02T13:36:14;19.33;;;4.15;;
52268;SDS011;38224;50.950;4.100;2023-02-02T13:38:41;7.43;;;2.85;;
52268;SDS011;38224;50.950;4.100;2023-02-02T13:41:09;13.77;;;3.00;;
52268;SDS011;38224;50.950;4.100;2023-02-02T13:46:13;13.98;;;3.15;;
52268;SDS011;38224;50.950;4.100;2023-02-02T13:53:51;6.82;;;2.28;;
52268;SDS011;38224;50.950;4.100;2023-02-02T14:14:19;14.05;;;3.67;;
52268;SDS011;38224;50.950;4.100;2023-02-02T14:21:58;12.77;;;4.15;;
52268;SDS011;38224;50.950;4.100;2023-02-02T14:26:51;13.00;;;5.80;;
52268;SDS011;38224;50.950;4.100;2023-02-02T14:31:54;16.52;;;4.05;;
52268;SDS011;38224;50.950;4.100;2023-02-02T14:39:46;13.00;;;4.17;;
52268;SDS011;38224;50.950;4.100;2023-02-02T14:42:17;17.02;;;3.70;;
52268;SDS011;38224;50.950;4.100;2023-02-02T14:45:05;16.17;;;3.13;;
52268;SDS011;38224;50.950;4.100;2023-02-02T14:53:00;7.97;;;3.45;;
52268;SDS011;38224;50.950;4.100;2023-02-02T14:55:27;12.90;;;3.60;;
52268;SDS011;38224;50.950;4.100;2023-02-02T14:57:57;12.20;;;3.60;;
52268;SDS011;38224;50.950;4.100;2023-02-02T15:00:23;11.18;;;4.10;;
52268;SDS011;38224;50.950;4.100;2023-02-02T15:02:50;10.48;;;3.50;;
52268;SDS011;38224;50.950;4.100;2023-02-02T15:07:52;15.27;;;4.20;;
52268;SDS011;38224;50.950;4.100;2023-02-02T15:13:06;20.52;;;4.10;;
52268;SDS011;38224;50.950;4.100;2023-02-02T15:15:34;20.27;;;4.30;;
52268;SDS011;38224;50.950;4.100;2023-02-02T15:20:57;20.73;;;4.28;;
52268;SDS011;38224;50.950;4.100;2023-02-02T15:23:34;12.05;;;4.03;;
52268;SDS011;38224;50.950;4.100;2023-02-02T15:26:07;16.63;;;4.28;;
52268;SDS011;38224;50.950;4.100;2023-02-02T15:33:50;13.82;;;3.47;;
52268;SDS011;38224;50.950;4.100;2023-02-02T15:36:32;18.90;;;3.75;;
52268;SDS011;38224;50.950;4.100;2023-02-02T15:39:00;12.63;;;3.87;;
52268;SDS011;38224;50.950;4.100;2023-02-02T15:43:51;30.92;;;5.50;;
52268;SDS011;38224;50.950;4.100;2023-02-02T15:46:22;23.83;;;8.23;;
52268;SDS011;38224;50.950;4.100;2023-02-02T15:51:32;24.92;;;11.43;;
52268;SDS011;38224;50.950;4.100;2023-02-02T15:53:57;19.02;;;8.35;;
52268;SDS011;38224;50.950;4.100;2023-02-02T15:58:49;16.53;;;6.10;;
52268;SDS011;38224;50.950;4.100;2023-02-02T16:01:16;14.02;;;4.07;;
52268;SDS011;38224;50.950;4.100;2023-02-02T16:03:45;12.85;;;4.32;;
52268;SDS011;38224;50.950;4.100;2023-02-02T16:06:12;11.48;;;3.42;;
52268;SDS011;38224;50.950;4.100;2023-02-02T16:08:38;13.30;;;3.92;;
52268;SDS011;38224;50.950;4.100;2023-02-02T16:13:35;16.45;;;4.00;;
52268;SDS011;38224;50.950;4.100;2023-02-02T16:16:05;12.00;;;3.60;;
52268;SDS011;38224;50.950;4.100;2023-02-02T16:18:30;14.45;;;4.25;;
52268;SDS011;38224;50.950;4.100;2023-02-02T16:20:57;12.35;;;3.15;;
52268;SDS011;38224;50.950;4.100;2023-02-02T16:23:27;12.50;;;4.55;;
52268;SDS011;38224;50.950;4.100;2023-02-02T16:25:53;18.95;;;3.75;;
52268;SDS011;38224;50.950;4.100;2023-02-02T16:28:19;18.10;;;4.38;;
52268;SDS011;38224;50.950;4.100;2023-02-02T16:30:46;18.25;;;4.90;;
52268;SDS011;38224;50.950;4.100;2023-02-02T16:35:52;12.00;;;4.78;;
52268;SDS011;38224;50.950;4.100;2023-02-02T16:38:22;15.18;;;5.43;;
52268;SDS011;38224;50.950;4.100;2023-02-02T16:40:48;17.67;;;4.60;;
52268;SDS011;38224;50.950;4.100;2023-02-02T16:48:22;13.82;;;4.85;;
52268;SDS011;38224;50.950;4.100;2023-02-02T16:51:01;16.63;;;6.28;;
52268;SDS011;38224;50.950;4.100;2023-02-02T16:53:27;17.25;;;4.57;;
52268;SDS011;38224;50.950;4.100;2023-02-02T16:55:53;20.70;;;4.78;;
52268;SDS011;38224;50.950;4.100;2023-02-02T16:58:20;17.33;;;4.78;;
52268;SDS011;38224;50.950;4.100;2023-02-02T17:01:20;13.50;;;5.80;;
52268;SDS011;38224;50.950;4.100;2023-02-02T17:03:38;18.05;;;5.43;;
52268;SDS011;38224;50.950;4.100;2023-02-02T17:06:06;16.50;;;5.50;;
52268;SDS011;38224;50.950;4.100;2023-02-02T17:08:33;13.30;;;4.35;;
52268;SDS011;38224;50.950;4.100;2023-02-02T17:10:59;16.83;;;5.68;;
52268;SDS011;38224;50.950;4.100;2023-02-02T17:15:53;30.90;;;10.18;;
52268;SDS011;38224;50.950;4.100;2023-02-02T17:18:19;39.77;;;13.60;;
52268;SDS011;38224;50.950;4.100;2023-02-02T17:20:44;59.03;;;16.60;;